sensor_id;sensor_type;location;lat;lon;timestamp;temperature;humidity
46590;DHT22;32313;48.722;9.362;2024-01-15T00:02:16;-3.80;99.90
46590;DHT22;32313;48.722;9.362;2024-01-15T00:04:41;-3.80;99.90
46590;DHT22;32313;48.722;9.362;2024-01-15T00:07:07;-3.80;99.90
46590;DHT22;32313;48.722;9.362;2024-01-15T00:09:34;-3.80;99.90
46590;DHT22;32313;48.722;9.362;2024-01-15T00:12:00;-3.80;99.90
46590;DHT22;32313;48.722;9.362;2024-01-15T00:14:26;-3.70;99.90
46590;DHT22;32313;48.722;9.362;2024-01-15T00:16:53;-3.70;99.90
46590;DHT22;32313;48.722;9.362;2024-01-15T00:19:21;-3.70;99.90
46590;DHT22;32313;48.722;9.362;2024-01-15T00:21:47;-3.70;99.90
46590;DHT22;32313;48.722;9.362;2024-01-15T00:24:12;-3.70;99.90
46590;DHT22;32313;48.722;9.362;2024-01-15T00:26:38;-3.70;99.90
46590;DHT22;32313;48.722;9.362;2024-01-15T00:29:04;-3.70;99.90
46590;DHT22;32313;48.722;9.362;2024-01-15T00:31:30;-3.70;99.90
46590;DHT22;32313;48.722;9.362;2024-01-15T00:33:56;-3.70;99.90
46590;DHT22;32313;48.722;9.362;2024-01-15T00:36:23;-3.80;99.90
46590;DHT22;32313;48.722;9.362;2024-01-15T00:38:48;-3.90;99.90
46590;DHT22;32313;48.722;9.362;2024-01-15T00:41:14;-4.00;99.90
46590;DHT22;32313;48.722;9.362;2024-01-15T00:43:40;-4.00;99.90
46590;DHT22;32313;48.722;9.362;2024-01-15T00:46:06;-4.10;99.90
46590;DHT22;32313;48.722;9.362;2024-01-15T00:48:32;-4.10;99.90
46590;DHT22;32313;48.722;9.362;2024-01-15T00:50:57;-4.20;99.90
46590;DHT22;32313;48.722;9.362;2024-01-15T00:53:23;-4.30;99.90
46590;DHT22;32313;48.722;9.362;2024-01-15T00:55:49;-4.30;99.90
46590;DHT22;32313;48.722;9.362;2024-01-15T00:58:15;-4.30;99.90
46590;DHT22;32313;48.722;9.362;2024-01-15T01:00:41;-4.40;99.90
46590;DHT22;32313;48.722;9.362;2024-01-15T01:03:08;-4.40;99.90
46590;DHT22;32313;48.722;9.362;2024-01-15T01:05:34;-4.40;99.90
46590;DHT22;32313;48.722;9.362;2024-01-15T01:08:00;-4.30;99.90
46590;DHT22;32313;48.722;9.362;2024-01-15T01:10:26;-4.30;99.90
46590;DHT22;32313;48.722;9.362;2024-01-15T01:12:52;-4.20;99.90
46590;DHT22;32313;48.722;9.362;2024-01-15T01:15:18;-4.20;99.90
46590;DHT22;32313;48.722;9.362;2024-01-15T01:17:43;-4.20;99.90
46590;DHT22;32313;48.722;9.362;2024-01-15T01:20:09;-4.10;99.90
46590;DHT22;32313;48.722;9.362;2024-01-15T01:22:36;-4.10;99.90
46590;DHT22;32313;48.722;9.362;2024-01-15T01:25:02;-4.10;99.90
46590;DHT22;32313;48.722;9.362;2024-01-15T01:27:28;-4.00;99.90
46590;DHT22;32313;48.722;9.362;2024-01-15T01:29:54;-4.00;99.90
46590;DHT22;32313;48.722;9.362;2024-01-15T01:32:20;-3.90;99.90
46590;DHT22;32313;48.722;9.362;2024-01-15T01:34:45;-3.90;99.90
46590;DHT22;32313;48.722;9.362;2024-01-15T01:37:11;-3.80;99.90
46590;DHT22;32313;48.722;9.362;2024-01-15T01:39:43;-3.80;99.90
46590;DHT22;32313;48.722;9.362;2024-01-15T01:42:09;-3.80;99.90
46590;DHT22;32313;48.722;9.362;2024-01-15T01:44:35;-3.70;99.90
46590;DHT22;32313;48.722;9.362;2024-01-15T01:47:01;-3.70;99.90
46590;DHT22;32313;48.722;9.362;2024-01-15T01:49:27;-3.70;99.90
46590;DHT22;32313;48.722;9.362;2024-01-15T01:51:57;-3.70;99.90
46590;DHT22;32313;48.722;9.362;2024-01-15T01:54:24;-3.70;99.90
46590;DHT22;32313;48.722;9.362;2024-01-15T01:56:51;-3.70;99.90
46590;DHT22;32313;48.722;9.362;2024-01-15T01:59:17;-3.60;99.90
46590;DHT22;32313;48.722;9.362;2024-01-15T02:01:44;-3.70;99.90
46590;DHT22;32313;48.722;9.362;2024-01-15T02:04:11;-3.70;99.90
46590;DHT22;32313;48.722;9.362;2024-01-15T02:06:37;-3.60;99.90
46590;DHT22;32313;48.722;9.362;2024-01-15T02:09:03;-3.60;99.90
46590;DHT22;32313;48.722;9.362;2024-01-15T02:11:29;-3.50;99.90
46590;DHT22;32313;48.722;9.362;2024-01-15T02:13:55;-3.50;99.90
46590;DHT22;32313;48.722;9.362;2024-01-15T02:16:21;-3.50;99.90
46590;DHT22;32313;48.722;9.362;2024-01-15T02:18:46;-3.50;99.90
46590;DHT22;32313;48.722;9.362;2024-01-15T02:21:12;-3.40;99.90
46590;DHT22;32313;48.722;9.362;2024-01-15T02:23:38;-3.40;99.90
46590;DHT22;32313;48.722;9.362;2024-01-15T02:26:08;-3.30;99.90
46590;DHT22;32313;48.722;9.362;2024-01-15T02:28:34;-3.30;99.90
46590;DHT22;32313;48.722;9.362;2024-01-15T02:31:00;-3.20;99.90
46590;DHT22;32313;48.722;9.362;2024-01-15T02:33:25;-3.20;99.90
46590;DHT22;32313;48.722;9.362;2024-01-15T02:35:51;-3.20;99.90
46590;DHT22;32313;48.722;9.362;2024-01-15T02:38:17;-3.10;99.90
46590;DHT22;32313;48.722;9.362;2024-01-15T02:40:44;-3.10;99.90
46590;DHT22;32313;48.722;9.362;2024-01-15T02:43:10;-3.00;99.90
46590;DHT22;32313;48.722;9.362;2024-01-15T02:45:35;-2.90;99.90
46590;DHT22;32313;48.722;9.362;2024-01-15T02:48:01;-2.90;99.90
46590;DHT22;32313;48.722;9.362;2024-01-15T02:50:27;-2.90;99.90
46590;DHT22;32313;48.722;9.362;2024-01-15T02:52:53;-2.90;99.90
46590;DHT22;32313;48.722;9.362;2024-01-15T02:55:19;-2.90;99.90
46590;DHT22;32313;48.722;9.362;2024-01-15T02:57:45;-2.90;99.90
46590;DHT22;32313;48.722;9.362;2024-01-15T03:00:11;-2.80;99.90
46590;DHT22;32313;48.722;9.362;2024-01-15T03:02:40;-2.80;99.90
46590;DHT22;32313;48.722;9.362;2024-01-15T03:05:09;-2.80;99.90
46590;DHT22;32313;48.722;9.362;2024-01-15T03:07:35;-2.80;99.90
46590;DHT22;32313;48.722;9.362;2024-01-15T03:10:00;-2.80;99.90
46590;DHT22;32313;48.722;9.362;2024-01-15T03:12:26;-2.90;99.90
46590;DHT22;32313;48.722;9.362;2024-01-15T03:14:52;-3.00;99.90
46590;DHT22;32313;48.722;9.362;2024-01-15T03:17:18;-3.10;99.90
46590;DHT22;32313;48.722;9.362;2024-01-15T03:19:43;-3.20;99.90
46590;DHT22;32313;48.722;9.362;2024-01-15T03:22:09;-3.30;99.90
46590;DHT22;32313;48.722;9.362;2024-01-15T03:24:35;-3.40;99.90
46590;DHT22;32313;48.722;9.362;2024-01-15T03:27:01;-3.50;99.90
46590;DHT22;32313;48.722;9.362;2024-01-15T03:29:27;-3.70;99.90
46590;DHT22;32313;48.722;9.362;2024-01-15T03:31:53;-3.80;99.90
46590;DHT22;32313;48.722;9.362;2024-01-15T03:34:18;-3.90;99.90
46590;DHT22;32313;48.722;9.362;2024-01-15T03:36:46;-3.90;99.90
46590;DHT22;32313;48.722;9.362;2024-01-15T03:39:11;-3.90;99.90
46590;DHT22;32313;48.722;9.362;2024-01-15T03:41:37;-3.90;99.90
46590;DHT22;32313;48.722;9.362;2024-01-15T03:44:03;-4.00;99.90
46590;DHT22;32313;48.722;9.362;2024-01-15T03:46:28;-4.00;99.90
46590;DHT22;32313;48.722;9.362;2024-01-15T03:48:54;-4.10;99.90
46590;DHT22;32313;48.722;9.362;2024-01-15T03:51:20;-4.20;99.90
46590;DHT22;32313;48.722;9.362;2024-01-15T03:53:46;-4.30;99.90
46590;DHT22;32313;48.722;9.362;2024-01-15T03:56:12;-4.30;99.90
46590;DHT22;32313;48.722;9.362;2024-01-15T03:58:37;-4.30;99.90
46590;DHT22;32313;48.722;9.362;2024-01-15T04:01:03;-4.30;99.90
46590;DHT22;32313;48.722;9.362;2024-01-15T04:03:29;-4.30;99.90
46590;DHT22;32313;48.722;9.362;2024-01-15T04:05:55;-4.20;99.90
46590;DHT22;32313;48.722;9.362;2024-01-15T04:08:20;-4.10;99.90
46590;DHT22;32313;48.722;9.362;2024-01-15T04:10:46;-4.10;99.90
46590;DHT22;32313;48.722;9.362;2024-01-15T04:13:11;-4.10;99.90
46590;DHT22;32313;48.722;9.362;2024-01-15T04:15:37;-4.10;99.90
46590;DHT22;32313;48.722;9.362;2024-01-15T04:18:03;-4.10;99.90
46590;DHT22;32313;48.722;9.362;2024-01-15T04:20:29;-4.00;99.90
46590;DHT22;32313;48.722;9.362;2024-01-15T04:22:55;-4.00;99.90
46590;DHT22;32313;48.722;9.362;2024-01-15T04:25:20;-3.90;99.90
46590;DHT22;32313;48.722;9.362;2024-01-15T04:27:46;-3.90;99.90
46590;DHT22;32313;48.722;9.362;2024-01-15T04:30:12;-3.60;99.90
46590;DHT22;32313;48.722;9.362;2024-01-15T04:32:38;-3.40;99.90
46590;DHT22;32313;48.722;9.362;2024-01-15T04:35:03;-3.30;99.90
46590;DHT22;32313;48.722;9.362;2024-01-15T04:37:29;-3.20;99.90
46590;DHT22;32313;48.722;9.362;2024-01-15T04:39:55;-3.10;99.90
46590;DHT22;32313;48.722;9.362;2024-01-15T04:42:22;-3.00;99.90
46590;DHT22;32313;48.722;9.362;2024-01-15T04:44:48;-3.00;99.90
46590;DHT22;32313;48.722;9.362;2024-01-15T04:47:14;-3.00;99.90
46590;DHT22;32313;48.722;9.362;2024-01-15T04:49:40;-3.00;99.90
46590;DHT22;32313;48.722;9.362;2024-01-15T04:52:05;-3.00;99.90
46590;DHT22;32313;48.722;9.362;2024-01-15T04:54:31;-3.00;99.90
46590;DHT22;32313;48.722;9.362;2024-01-15T04:56:57;-3.00;99.90
46590;DHT22;32313;48.722;9.362;2024-01-15T04:59:22;-2.90;99.90
46590;DHT22;32313;48.722;9.362;2024-01-15T05:01:48;-2.90;99.90
46590;DHT22;32313;48.722;9.362;2024-01-15T05:04:14;-2.90;99.90
46590;DHT22;32313;48.722;9.362;2024-01-15T05:06:40;-2.80;99.90
46590;DHT22;32313;48.722;9.362;2024-01-15T05:09:06;-2.70;99.90
46590;DHT22;32313;48.722;9.362;2024-01-15T05:11:32;-2.70;99.90
46590;DHT22;32313;48.722;9.362;2024-01-15T05:13:58;-2.60;99.90
46590;DHT22;32313;48.722;9.362;2024-01-15T05:16:23;-2.60;99.90
46590;DHT22;32313;48.722;9.362;2024-01-15T05:18:49;-2.50;99.90
46590;DHT22;32313;48.722;9.362;2024-01-15T05:21:15;-2.40;99.90
46590;DHT22;32313;48.722;9.362;2024-01-15T05:23:40;-2.30;99.90
46590;DHT22;32313;48.722;9.362;2024-01-15T05:26:06;-2.10;99.90
46590;DHT22;32313;48.722;9.362;2024-01-15T05:28:32;-2.00;99.90
46590;DHT22;32313;48.722;9.362;2024-01-15T05:30:57;-1.90;99.90
46590;DHT22;32313;48.722;9.362;2024-01-15T05:33:23;-1.80;99.90
46590;DHT22;32313;48.722;9.362;2024-01-15T05:35:49;-1.50;99.90
46590;DHT22;32313;48.722;9.362;2024-01-15T05:38:16;-1.30;99.90
46590;DHT22;32313;48.722;9.362;2024-01-15T05:40:42;-1.30;99.90
46590;DHT22;32313;48.722;9.362;2024-01-15T05:43:08;-1.20;99.90
46590;DHT22;32313;48.722;9.362;2024-01-15T05:45:34;-1.20;99.90
46590;DHT22;32313;48.722;9.362;2024-01-15T05:48:00;-1.20;99.90
46590;DHT22;32313;48.722;9.362;2024-01-15T05:50:26;-1.10;99.90
46590;DHT22;32313;48.722;9.362;2024-01-15T05:52:51;-1.00;99.90
46590;DHT22;32313;48.722;9.362;2024-01-15T05:55:17;-1.00;99.90
46590;DHT22;32313;48.722;9.362;2024-01-15T05:57:44;-0.90;99.90
46590;DHT22;32313;48.722;9.362;2024-01-15T06:00:10;-0.90;99.90
46590;DHT22;32313;48.722;9.362;2024-01-15T06:02:40;-0.90;99.90
46590;DHT22;32313;48.722;9.362;2024-01-15T06:05:06;-1.00;99.90
46590;DHT22;32313;48.722;9.362;2024-01-15T06:07:33;-0.90;99.90
46590;DHT22;32313;48.722;9.362;2024-01-15T06:09:59;-0.70;99.90
46590;DHT22;32313;48.722;9.362;2024-01-15T06:12:24;-0.70;99.90
46590;DHT22;32313;48.722;9.362;2024-01-15T06:14:50;-0.70;99.90
46590;DHT22;32313;48.722;9.362;2024-01-15T06:17:16;-0.70;99.90
46590;DHT22;32313;48.722;9.362;2024-01-15T06:19:41;-0.70;99.90
46590;DHT22;32313;48.722;9.362;2024-01-15T06:22:07;-0.70;99.90
46590;DHT22;32313;48.722;9.362;2024-01-15T06:24:33;-0.70;99.90
46590;DHT22;32313;48.722;9.362;2024-01-15T06:26:59;-0.60;99.90
46590;DHT22;32313;48.722;9.362;2024-01-15T06:29:26;-0.70;99.90
46590;DHT22;32313;48.722;9.362;2024-01-15T06:31:51;-0.70;99.90
46590;DHT22;32313;48.722;9.362;2024-01-15T06:34:17;-0.70;99.90
46590;DHT22;32313;48.722;9.362;2024-01-15T06:36:43;-0.70;99.90
46590;DHT22;32313;48.722;9.362;2024-01-15T06:39:09;-0.70;99.90
46590;DHT22;32313;48.722;9.362;2024-01-15T06:41:35;-0.70;99.90
46590;DHT22;32313;48.722;9.362;2024-01-15T06:44:07;-0.80;99.90
46590;DHT22;32313;48.722;9.362;2024-01-15T06:46:34;-0.70;99.90
46590;DHT22;32313;48.722;9.362;2024-01-15T06:49:00;-0.70;99.90
46590;DHT22;32313;48.722;9.362;2024-01-15T06:51:25;-0.60;99.90
46590;DHT22;32313;48.722;9.362;2024-01-15T06:53:51;-0.70;99.90
46590;DHT22;32313;48.722;9.362;2024-01-15T06:56:17;-0.70;99.90
46590;DHT22;32313;48.722;9.362;2024-01-15T06:58:42;-0.70;99.90
46590;DHT22;32313;48.722;9.362;2024-01-15T07:01:08;-0.70;99.90
46590;DHT22;32313;48.722;9.362;2024-01-15T07:03:34;-0.80;99.90
46590;DHT22;32313;48.722;9.362;2024-01-15T07:05:59;-0.80;99.90
46590;DHT22;32313;48.722;9.362;2024-01-15T07:08:25;-0.90;99.90
46590;DHT22;32313;48.722;9.362;2024-01-15T07:10:51;-0.90;99.90
46590;DHT22;32313;48.722;9.362;2024-01-15T07:13:17;-0.80;99.90
46590;DHT22;32313;48.722;9.362;2024-01-15T07:15:43;-0.80;99.90
46590;DHT22;32313;48.722;9.362;2024-01-15T07:18:08;-0.80;99.90
46590;DHT22;32313;48.722;9.362;2024-01-15T07:20:34;-0.80;99.90
46590;DHT22;32313;48.722;9.362;2024-01-15T07:23:00;-0.80;99.90
46590;DHT22;32313;48.722;9.362;2024-01-15T07:25:25;-0.70;99.90
46590;DHT22;32313;48.722;9.362;2024-01-15T07:27:51;-0.60;99.90
46590;DHT22;32313;48.722;9.362;2024-01-15T07:30:19;-0.60;99.90
46590;DHT22;32313;48.722;9.362;2024-01-15T07:32:47;-0.60;99.90
46590;DHT22;32313;48.722;9.362;2024-01-15T07:35:14;-0.60;99.90
46590;DHT22;32313;48.722;9.362;2024-01-15T07:37:40;-0.60;99.90
46590;DHT22;32313;48.722;9.362;2024-01-15T07:40:06;-0.60;99.90
46590;DHT22;32313;48.722;9.362;2024-01-15T07:42:34;-0.60;99.90
46590;DHT22;32313;48.722;9.362;2024-01-15T07:45:00;-0.50;99.90
46590;DHT22;32313;48.722;9.362;2024-01-15T07:47:26;-0.50;99.90
46590;DHT22;32313;48.722;9.362;2024-01-15T07:49:53;-0.40;99.90
46590;DHT22;32313;48.722;9.362;2024-01-15T07:52:19;-0.40;99.90
46590;DHT22;32313;48.722;9.362;2024-01-15T07:54:45;-0.40;99.90
46590;DHT22;32313;48.722;9.362;2024-01-15T07:57:11;-0.40;99.90
46590;DHT22;32313;48.722;9.362;2024-01-15T07:59:37;-0.40;99.90
46590;DHT22;32313;48.722;9.362;2024-01-15T08:02:03;-0.40;99.90
46590;DHT22;32313;48.722;9.362;2024-01-15T08:04:28;-0.30;99.90
46590;DHT22;32313;48.722;9.362;2024-01-15T08:06:54;-0.30;99.90
46590;DHT22;32313;48.722;9.362;2024-01-15T08:09:20;-0.30;99.90
46590;DHT22;32313;48.722;9.362;2024-01-15T08:11:46;-0.40;99.90
46590;DHT22;32313;48.722;9.362;2024-01-15T08:14:12;-0.40;99.90
46590;DHT22;32313;48.722;9.362;2024-01-15T08:16:38;-0.40;99.90
46590;DHT22;32313;48.722;9.362;2024-01-15T08:19:04;-0.40;99.90
46590;DHT22;32313;48.722;9.362;2024-01-15T08:21:30;-0.40;99.90
46590;DHT22;32313;48.722;9.362;2024-01-15T08:24:00;-0.40;99.90
46590;DHT22;32313;48.722;9.362;2024-01-15T08:26:28;-0.30;99.90
46590;DHT22;32313;48.722;9.362;2024-01-15T08:28:54;-0.30;99.90
46590;DHT22;32313;48.722;9.362;2024-01-15T08:31:19;-0.30;99.90
46590;DHT22;32313;48.722;9.362;2024-01-15T08:33:45;-0.30;99.90
46590;DHT22;32313;48.722;9.362;2024-01-15T08:36:11;-0.20;99.90
46590;DHT22;32313;48.722;9.362;2024-01-15T08:38:37;-0.20;99.90
46590;DHT22;32313;48.722;9.362;2024-01-15T08:41:03;-0.10;99.90
46590;DHT22;32313;48.722;9.362;2024-01-15T08:43:28;-0.10;99.90
46590;DHT22;32313;48.722;9.362;2024-01-15T08:45:56;-0.10;99.90
46590;DHT22;32313;48.722;9.362;2024-01-15T08:48:22;0.00;99.90
46590;DHT22;32313;48.722;9.362;2024-01-15T08:50:48;0.00;99.90
46590;DHT22;32313;48.722;9.362;2024-01-15T08:53:14;0.10;99.90
46590;DHT22;32313;48.722;9.362;2024-01-15T08:55:40;0.20;99.90
46590;DHT22;32313;48.722;9.362;2024-01-15T08:58:08;0.20;99.90
46590;DHT22;32313;48.722;9.362;2024-01-15T09:00:34;0.30;99.90
46590;DHT22;32313;48.722;9.362;2024-01-15T09:02:59;0.40;99.90
46590;DHT22;32313;48.722;9.362;2024-01-15T09:05:25;0.40;99.90
46590;DHT22;32313;48.722;9.362;2024-01-15T09:07:51;0.40;99.90
46590;DHT22;32313;48.722;9.362;2024-01-15T09:10:18;0.50;99.90
46590;DHT22;32313;48.722;9.362;2024-01-15T09:12:44;0.50;99.90
46590;DHT22;32313;48.722;9.362;2024-01-15T09:15:10;0.60;99.90
46590;DHT22;32313;48.722;9.362;2024-01-15T09:17:35;0.60;99.90
46590;DHT22;32313;48.722;9.362;2024-01-15T09:20:01;0.60;99.90
46590;DHT22;32313;48.722;9.362;2024-01-15T09:22:27;0.60;99.90
46590;DHT22;32313;48.722;9.362;2024-01-15T09:24:52;0.70;99.90
46590;DHT22;32313;48.722;9.362;2024-01-15T09:27:18;0.70;99.90
46590;DHT22;32313;48.722;9.362;2024-01-15T09:29:44;0.70;99.90
46590;DHT22;32313;48.722;9.362;2024-01-15T09:32:12;0.70;99.90
46590;DHT22;32313;48.722;9.362;2024-01-15T09:34:38;0.70;99.90
46590;DHT22;32313;48.722;9.362;2024-01-15T09:37:04;0.70;99.90
46590;DHT22;32313;48.722;9.362;2024-01-15T09:39:30;0.70;99.90
46590;DHT22;32313;48.722;9.362;2024-01-15T09:41:56;0.80;99.90
46590;DHT22;32313;48.722;9.362;2024-01-15T09:44:22;0.90;99.90
46590;DHT22;32313;48.722;9.362;2024-01-15T09:46:48;0.90;99.90
46590;DHT22;32313;48.722;9.362;2024-01-15T09:49:17;1.00;99.90
46590;DHT22;32313;48.722;9.362;2024-01-15T09:51:43;1.10;99.90
46590;DHT22;32313;48.722;9.362;2024-01-15T09:54:09;1.10;99.90
46590;DHT22;32313;48.722;9.362;2024-01-15T09:56:35;1.20;99.90
46590;DHT22;32313;48.722;9.362;2024-01-15T09:59:01;1.20;99.90
46590;DHT22;32313;48.722;9.362;2024-01-15T10:01:31;1.30;99.90
46590;DHT22;32313;48.722;9.362;2024-01-15T10:03:58;1.30;99.90
46590;DHT22;32313;48.722;9.362;2024-01-15T10:06:27;1.40;99.90
46590;DHT22;32313;48.722;9.362;2024-01-15T10:08:57;1.40;99.90
46590;DHT22;32313;48.722;9.362;2024-01-15T10:11:26;1.40;99.90
46590;DHT22;32313;48.722;9.362;2024-01-15T10:13:52;1.40;99.90
46590;DHT22;32313;48.722;9.362;2024-01-15T10:16:21;1.40;99.90
46590;DHT22;32313;48.722;9.362;2024-01-15T10:18:49;1.40;99.90
46590;DHT22;32313;48.722;9.362;2024-01-15T10:21:14;1.40;99.90
46590;DHT22;32313;48.722;9.362;2024-01-15T10:23:41;1.40;99.90
46590;DHT22;32313;48.722;9.362;2024-01-15T10:26:07;1.30;99.90
46590;DHT22;32313;48.722;9.362;2024-01-15T10:28:33;1.40;99.90
46590;DHT22;32313;48.722;9.362;2024-01-15T10:30:59;1.40;99.90
46590;DHT22;32313;48.722;9.362;2024-01-15T10:33:25;1.40;99.90
46590;DHT22;32313;48.722;9.362;2024-01-15T10:35:54;1.40;99.90
46590;DHT22;32313;48.722;9.362;2024-01-15T10:38:24;1.40;99.90
46590;DHT22;32313;48.722;9.362;2024-01-15T10:40:56;1.40;99.90
46590;DHT22;32313;48.722;9.362;2024-01-15T10:43:23;1.40;99.90
46590;DHT22;32313;48.722;9.362;2024-01-15T10:45:50;1.50;99.90
46590;DHT22;32313;48.722;9.362;2024-01-15T10:48:17;1.50;99.90
46590;DHT22;32313;48.722;9.362;2024-01-15T10:50:44;1.50;99.90
46590;DHT22;32313;48.722;9.362;2024-01-15T10:53:13;1.50;99.90
46590;DHT22;32313;48.722;9.362;2024-01-15T10:55:39;1.50;99.90
46590;DHT22;32313;48.722;9.362;2024-01-15T10:58:08;1.60;99.90
46590;DHT22;32313;48.722;9.362;2024-01-15T11:00:35;1.60;99.90
46590;DHT22;32313;48.722;9.362;2024-01-15T11:03:03;1.60;99.90
46590;DHT22;32313;48.722;9.362;2024-01-15T11:05:38;1.60;99.90
46590;DHT22;32313;48.722;9.362;2024-01-15T11:08:06;1.60;99.90
46590;DHT22;32313;48.722;9.362;2024-01-15T11:10:45;1.70;99.90
46590;DHT22;32313;48.722;9.362;2024-01-15T11:16:03;1.70;99.90
46590;DHT22;32313;48.722;9.362;2024-01-15T11:18:42;1.80;99.90
46590;DHT22;32313;48.722;9.362;2024-01-15T11:23:44;1.80;99.90
46590;DHT22;32313;48.722;9.362;2024-01-15T11:28:56;1.80;99.90
46590;DHT22;32313;48.722;9.362;2024-01-15T11:33:55;1.80;99.90
46590;DHT22;32313;48.722;9.362;2024-01-15T11:41:56;1.70;99.90
46590;DHT22;32313;48.722;9.362;2024-01-15T11:44:22;1.70;99.90
46590;DHT22;32313;48.722;9.362;2024-01-15T11:46:58;1.80;99.90
46590;DHT22;32313;48.722;9.362;2024-01-15T11:52:06;1.80;99.90
46590;DHT22;32313;48.722;9.362;2024-01-15T11:54:33;1.80;99.90
46590;DHT22;32313;48.722;9.362;2024-01-15T11:57:06;1.80;99.90
46590;DHT22;32313;48.722;9.362;2024-01-15T11:59:35;1.80;99.90
46590;DHT22;32313;48.722;9.362;2024-01-15T12:02:01;1.80;99.90
46590;DHT22;32313;48.722;9.362;2024-01-15T12:04:27;1.70;99.90
46590;DHT22;32313;48.722;9.362;2024-01-15T12:06:53;1.60;99.90
46590;DHT22;32313;48.722;9.362;2024-01-15T12:09:22;1.60;99.90
46590;DHT22;32313;48.722;9.362;2024-01-15T12:11:54;1.60;99.90
46590;DHT22;32313;48.722;9.362;2024-01-15T12:14:33;1.60;99.90
46590;DHT22;32313;48.722;9.362;2024-01-15T12:17:00;1.60;99.90
46590;DHT22;32313;48.722;9.362;2024-01-15T12:19:26;1.60;99.90
46590;DHT22;32313;48.722;9.362;2024-01-15T12:21:51;1.60;99.90
46590;DHT22;32313;48.722;9.362;2024-01-15T12:24:17;1.70;99.90
46590;DHT22;32313;48.722;9.362;2024-01-15T12:26:44;1.70;99.90
46590;DHT22;32313;48.722;9.362;2024-01-15T12:29:11;1.60;99.90
46590;DHT22;32313;48.722;9.362;2024-01-15T12:31:36;1.40;99.90
46590;DHT22;32313;48.722;9.362;2024-01-15T12:34:02;1.30;99.90
46590;DHT22;32313;48.722;9.362;2024-01-15T12:36:31;1.30;99.90
46590;DHT22;32313;48.722;9.362;2024-01-15T12:39:00;1.20;99.90
46590;DHT22;32313;48.722;9.362;2024-01-15T12:41:25;1.20;99.90
46590;DHT22;32313;48.722;9.362;2024-01-15T12:43:51;1.00;99.90
46590;DHT22;32313;48.722;9.362;2024-01-15T12:46:17;0.90;99.90
46590;DHT22;32313;48.722;9.362;2024-01-15T12:48:45;0.80;99.90
46590;DHT22;32313;48.722;9.362;2024-01-15T12:51:10;0.70;99.90
46590;DHT22;32313;48.722;9.362;2024-01-15T12:53:36;0.60;99.90
46590;DHT22;32313;48.722;9.362;2024-01-15T12:56:02;0.50;99.90
46590;DHT22;32313;48.722;9.362;2024-01-15T12:58:28;0.40;99.90
46590;DHT22;32313;48.722;9.362;2024-01-15T13:00:53;0.30;99.90
46590;DHT22;32313;48.722;9.362;2024-01-15T13:03:19;0.20;99.90
46590;DHT22;32313;48.722;9.362;2024-01-15T13:05:45;0.20;99.90
46590;DHT22;32313;48.722;9.362;2024-01-15T13:08:11;0.10;99.90
46590;DHT22;32313;48.722;9.362;2024-01-15T13:10:36;0.10;99.90
46590;DHT22;32313;48.722;9.362;2024-01-15T13:13:02;0.20;99.90
46590;DHT22;32313;48.722;9.362;2024-01-15T13:15:28;0.10;99.90
46590;DHT22;32313;48.722;9.362;2024-01-15T13:17:54;0.20;99.90
46590;DHT22;32313;48.722;9.362;2024-01-15T13:20:19;0.20;99.90
46590;DHT22;32313;48.722;9.362;2024-01-15T13:22:45;0.20;99.90
46590;DHT22;32313;48.722;9.362;2024-01-15T13:25:11;0.30;99.90
46590;DHT22;32313;48.722;9.362;2024-01-15T13:27:37;0.30;99.90
46590;DHT22;32313;48.722;9.362;2024-01-15T13:30:03;0.20;99.90
46590;DHT22;32313;48.722;9.362;2024-01-15T13:32:29;0.20;99.90
46590;DHT22;32313;48.722;9.362;2024-01-15T13:34:56;0.10;99.90
46590;DHT22;32313;48.722;9.362;2024-01-15T13:37:22;0.10;99.90
46590;DHT22;32313;48.722;9.362;2024-01-15T13:39:50;0.10;99.90
46590;DHT22;32313;48.722;9.362;2024-01-15T13:42:18;0.10;99.90
46590;DHT22;32313;48.722;9.362;2024-01-15T13:44:43;0.10;99.90
46590;DHT22;32313;48.722;9.362;2024-01-15T13:47:09;0.10;99.90
46590;DHT22;32313;48.722;9.362;2024-01-15T13:49:35;0.10;99.90
46590;DHT22;32313;48.722;9.362;2024-01-15T13:52:03;0.10;99.90
46590;DHT22;32313;48.722;9.362;2024-01-15T13:54:29;0.10;99.90
46590;DHT22;32313;48.722;9.362;2024-01-15T13:56:56;0.10;99.90
46590;DHT22;32313;48.722;9.362;2024-01-15T13:59:22;0.10;99.90
46590;DHT22;32313;48.722;9.362;2024-01-15T14:01:48;0.10;99.90
46590;DHT22;32313;48.722;9.362;2024-01-15T14:04:14;0.10;99.90
46590;DHT22;32313;48.722;9.362;2024-01-15T14:06:39;0.10;99.90
46590;DHT22;32313;48.722;9.362;2024-01-15T14:09:05;0.10;99.90
46590;DHT22;32313;48.722;9.362;2024-01-15T14:11:31;0.10;99.90
46590;DHT22;32313;48.722;9.362;2024-01-15T14:13:57;0.10;99.90
46590;DHT22;32313;48.722;9.362;2024-01-15T14:16:22;0.10;99.90
46590;DHT22;32313;48.722;9.362;2024-01-15T14:18:48;0.10;99.90
46590;DHT22;32313;48.722;9.362;2024-01-15T14:21:14;0.10;99.90
46590;DHT22;32313;48.722;9.362;2024-01-15T14:23:40;0.00;99.90
46590;DHT22;32313;48.722;9.362;2024-01-15T14:26:06;0.00;99.90
46590;DHT22;32313;48.722;9.362;2024-01-15T14:28:32;0.00;99.90
46590;DHT22;32313;48.722;9.362;2024-01-15T14:30:57;0.00;99.90
46590;DHT22;32313;48.722;9.362;2024-01-15T14:33:26;0.00;99.90
46590;DHT22;32313;48.722;9.362;2024-01-15T14:35:52;0.00;99.90
46590;DHT22;32313;48.722;9.362;2024-01-15T14:38:18;0.00;99.90
46590;DHT22;32313;48.722;9.362;2024-01-15T14:40:44;0.00;99.90
46590;DHT22;32313;48.722;9.362;2024-01-15T14:43:10;0.00;99.90
46590;DHT22;32313;48.722;9.362;2024-01-15T14:45:36;-0.10;99.90
46590;DHT22;32313;48.722;9.362;2024-01-15T14:48:02;-0.10;99.90
46590;DHT22;32313;48.722;9.362;2024-01-15T14:50:28;-0.10;99.90
46590;DHT22;32313;48.722;9.362;2024-01-15T14:52:53;0.00;99.90
46590;DHT22;32313;48.722;9.362;2024-01-15T14:55:19;0.00;99.90
46590;DHT22;32313;48.722;9.362;2024-01-15T14:57:45;0.00;99.90
46590;DHT22;32313;48.722;9.362;2024-01-15T15:00:10;0.00;99.90
46590;DHT22;32313;48.722;9.362;2024-01-15T15:02:39;0.00;99.90
46590;DHT22;32313;48.722;9.362;2024-01-15T15:05:05;0.00;99.90
46590;DHT22;32313;48.722;9.362;2024-01-15T15:07:31;0.00;99.90
46590;DHT22;32313;48.722;9.362;2024-01-15T15:09:57;0.00;99.90
46590;DHT22;32313;48.722;9.362;2024-01-15T15:12:22;0.00;99.90
46590;DHT22;32313;48.722;9.362;2024-01-15T15:14:48;-0.10;99.90
46590;DHT22;32313;48.722;9.362;2024-01-15T15:17:14;-0.10;99.90
46590;DHT22;32313;48.722;9.362;2024-01-15T15:19:40;-0.10;99.90
46590;DHT22;32313;48.722;9.362;2024-01-15T15:22:06;-0.20;99.90
46590;DHT22;32313;48.722;9.362;2024-01-15T15:24:37;-0.20;99.90
46590;DHT22;32313;48.722;9.362;2024-01-15T15:27:03;-0.20;99.90
46590;DHT22;32313;48.722;9.362;2024-01-15T15:29:31;-0.30;99.90
46590;DHT22;32313;48.722;9.362;2024-01-15T15:31:57;-0.30;99.90
46590;DHT22;32313;48.722;9.362;2024-01-15T15:34:22;-0.30;99.90
46590;DHT22;32313;48.722;9.362;2024-01-15T15:36:48;-0.30;99.90
46590;DHT22;32313;48.722;9.362;2024-01-15T15:39:14;-0.30;99.90
46590;DHT22;32313;48.722;9.362;2024-01-15T15:41:41;-0.30;99.90
46590;DHT22;32313;48.722;9.362;2024-01-15T15:44:07;-0.30;99.90
46590;DHT22;32313;48.722;9.362;2024-01-15T15:46:35;-0.30;99.90
46590;DHT22;32313;48.722;9.362;2024-01-15T15:49:01;-0.30;99.90
46590;DHT22;32313;48.722;9.362;2024-01-15T15:51:32;-0.30;99.90